createdAt,value
2017-12-09T00:00:44.728Z,995.61
2017-12-09T00:01:44.734Z,995.63
2017-12-09T00:02:44.743Z,995.58
2017-12-09T00:03:44.756Z,995.55
2017-12-09T00:04:44.768Z,995.53
2017-12-09T00:05:44.775Z,995.52
2017-12-09T00:06:44.797Z,995.46
2017-12-09T00:07:44.796Z,995.42
2017-12-09T00:08:44.808Z,995.44
2017-12-09T00:09:44.817Z,995.43
2017-12-09T00:10:44.829Z,995.43
2017-12-09T00:11:44.840Z,995.42
2017-12-09T00:12:44.847Z,995.42
2017-12-09T00:13:44.859Z,995.39
2017-12-09T00:14:44.869Z,995.39
2017-12-09T00:15:44.881Z,995.35
2017-12-09T00:16:44.890Z,995.37
2017-12-09T00:17:44.900Z,995.36
2017-12-09T00:18:44.917Z,995.34
2017-12-09T00:19:44.921Z,995.27
2017-12-09T00:20:44.931Z,995.3
2017-12-09T00:21:44.941Z,995.32
2017-12-09T00:22:44.961Z,995.26
2017-12-09T00:23:44.962Z,995.26
2017-12-09T00:24:44.974Z,995.23
2017-12-09T00:25:44.987Z,995.22
2017-12-09T00:26:44.997Z,995.21
2017-12-09T00:27:45.005Z,995.09
2017-12-09T00:28:45.014Z,995.08
2017-12-09T00:29:45.024Z,994.99
2017-12-09T00:30:45.046Z,994.98
2017-12-09T00:31:45.046Z,994.96
2017-12-09T00:32:45.064Z,994.89
2017-12-09T00:33:45.067Z,994.87
2017-12-09T00:34:45.076Z,994.91
2017-12-09T00:35:45.088Z,994.89
2017-12-09T00:36:45.103Z,994.89
2017-12-09T00:37:45.112Z,994.82
2017-12-09T00:38:45.118Z,994.83
2017-12-09T00:39:45.131Z,994.74
2017-12-09T00:40:45.145Z,994.77
2017-12-09T00:41:45.152Z,994.75
2017-12-09T00:42:45.161Z,994.71
2017-12-09T00:43:45.171Z,994.72
2017-12-09T00:44:45.194Z,994.77
2017-12-09T00:45:45.191Z,994.75
2017-12-09T00:46:45.208Z,994.78
2017-12-09T00:47:45.216Z,994.82
2017-12-09T00:48:45.234Z,994.82
2017-12-09T00:49:45.233Z,994.82
2017-12-09T00:50:45.254Z,994.79
2017-12-09T00:51:45.256Z,994.79
2017-12-09T00:52:45.265Z,994.82
2017-12-09T00:53:45.275Z,994.78
2017-12-09T00:54:45.288Z,994.75
2017-12-09T00:55:45.294Z,994.75
2017-12-09T00:56:45.323Z,994.71
2017-12-09T00:57:45.317Z,994.68
2017-12-09T00:58:45.330Z,994.63
2017-12-09T00:59:45.338Z,994.63
2017-12-09T01:00:45.357Z,994.67
2017-12-09T01:01:45.357Z,994.65
2017-12-09T01:02:45.369Z,994.63
2017-12-09T01:03:45.381Z,994.64
2017-12-09T01:04:45.388Z,994.64
2017-12-09T01:05:45.398Z,994.61
2017-12-09T01:06:45.408Z,994.64
2017-12-09T01:07:45.419Z,994.54
2017-12-09T01:08:45.430Z,994.6
2017-12-09T01:09:45.443Z,994.56
2017-12-09T01:10:45.452Z,994.54
2017-12-09T01:11:45.459Z,994.57
2017-12-09T01:12:45.470Z,994.61
2017-12-09T01:13:45.480Z,994.62
2017-12-09T01:14:45.490Z,994.55
2017-12-09T01:15:45.501Z,994.65
2017-12-09T01:16:45.512Z,994.61
2017-12-09T01:17:45.522Z,994.62
2017-12-09T01:18:45.536Z,994.58
2017-12-09T01:19:45.542Z,994.59
2017-12-09T01:20:45.553Z,994.57
2017-12-09T01:21:45.563Z,994.54
2017-12-09T01:22:45.572Z,994.51
2017-12-09T01:23:45.583Z,994.51
2017-12-09T01:24:45.601Z,994.58
2017-12-09T01:25:45.606Z,994.59
2017-12-09T01:26:45.618Z,994.59
2017-12-09T01:27:45.627Z,994.62
2017-12-09T01:28:45.636Z,994.58
2017-12-09T01:29:45.647Z,994.52
2017-12-09T01:30:45.674Z,994.6
2017-12-09T01:31:45.668Z,994.55
2017-12-09T01:32:45.684Z,994.52
2017-12-09T01:33:45.684Z,994.47
2017-12-09T01:34:45.695Z,994.49
2017-12-09T01:35:45.704Z,994.49
2017-12-09T01:36:45.724Z,994.49
2017-12-09T01:37:45.725Z,994.47
2017-12-09T01:38:45.743Z,994.46
2017-12-09T01:39:45.746Z,994.48
2017-12-09T01:40:45.760Z,994.48
2017-12-09T01:41:45.766Z,994.49
2017-12-09T01:42:45.787Z,994.47
2017-12-09T01:43:45.791Z,994.46
2017-12-09T01:44:45.803Z,994.48
2017-12-09T01:45:45.807Z,994.47
2017-12-09T01:46:45.827Z,994.46
2017-12-09T01:47:45.827Z,994.48
2017-12-09T01:48:45.843Z,994.48
2017-12-09T01:49:45.848Z,994.5
2017-12-09T01:50:45.860Z,994.49
2017-12-09T01:51:45.867Z,994.52
2017-12-09T01:52:45.885Z,994.51
2017-12-09T01:53:45.888Z,994.54
2017-12-09T01:54:45.906Z,994.57
2017-12-09T01:55:45.908Z,994.48
2017-12-09T01:56:45.930Z,994.56
2017-12-09T01:57:45.928Z,994.61
2017-12-09T01:58:45.949Z,994.51
2017-12-09T01:59:45.949Z,994.62
2017-12-09T02:00:45.978Z,994.6
2017-12-09T02:01:45.970Z,994.54
2017-12-09T02:02:45.978Z,994.59
2017-12-09T02:03:45.988Z,994.58
2017-12-09T02:04:46.006Z,994.5
2017-12-09T02:05:46.010Z,994.52
2017-12-09T02:06:46.020Z,994.54
2017-12-09T02:07:46.030Z,994.55
2017-12-09T02:08:46.045Z,994.49
2017-12-09T02:09:46.049Z,994.53
2017-12-09T02:10:46.064Z,994.51
2017-12-09T02:11:46.069Z,994.47
2017-12-09T02:12:46.087Z,994.5
2017-12-09T02:13:46.091Z,994.49
2017-12-09T02:14:46.107Z,994.5
2017-12-09T02:15:46.109Z,994.54
2017-12-09T02:16:46.124Z,994.55
2017-12-09T02:17:46.132Z,994.52
2017-12-09T02:18:46.141Z,994.56
2017-12-09T02:19:46.151Z,994.55
2017-12-09T02:20:46.161Z,994.54
2017-12-09T02:21:46.172Z,994.54
2017-12-09T02:22:46.189Z,994.53
2017-12-09T02:23:46.191Z,994.57
2017-12-09T02:24:46.212Z,994.53
2017-12-09T02:25:46.210Z,994.54
2017-12-09T02:26:46.247Z,994.55
2017-12-09T02:27:46.231Z,994.54
2017-12-09T02:28:46.241Z,994.42
2017-12-09T02:29:46.251Z,994.48
2017-12-09T02:30:46.263Z,994.41
2017-12-09T02:31:46.272Z,994.5
2017-12-09T02:32:46.282Z,994.52
2017-12-09T02:33:46.298Z,994.48
2017-12-09T02:34:46.301Z,994.42
2017-12-09T02:35:46.313Z,994.43
2017-12-09T02:36:46.321Z,994.42
2017-12-09T02:37:46.332Z,994.46
2017-12-09T02:38:46.342Z,994.4
2017-12-09T02:39:46.351Z,994.42
2017-12-09T02:40:46.362Z,994.37
2017-12-09T02:41:46.371Z,994.39
2017-12-09T02:42:46.381Z,994.44
2017-12-09T02:43:46.394Z,994.44
2017-12-09T02:44:46.403Z,994.42
2017-12-09T02:45:46.413Z,994.5
2017-12-09T02:46:46.423Z,994.47
2017-12-09T02:47:46.432Z,994.44
2017-12-09T02:48:46.443Z,994.34
2017-12-09T02:49:46.452Z,994.35
2017-12-09T02:50:46.462Z,994.31
2017-12-09T02:51:46.472Z,994.32
2017-12-09T02:52:46.482Z,994.33
2017-12-09T02:53:46.492Z,994.34
2017-12-09T02:54:46.502Z,994.36
2017-12-09T02:55:46.512Z,994.4
2017-12-09T02:56:46.523Z,994.43
2017-12-09T02:57:46.532Z,994.46
2017-12-09T02:58:46.542Z,994.47
2017-12-09T02:59:46.563Z,994.44
2017-12-09T03:00:46.570Z,994.5
2017-12-09T03:01:46.572Z,994.5
2017-12-09T03:02:46.589Z,994.46
2017-12-09T03:03:46.592Z,994.49
2017-12-09T03:04:46.611Z,994.55
2017-12-09T03:05:46.623Z,994.55
2017-12-09T03:06:46.625Z,994.59
2017-12-09T03:07:46.632Z,994.53
2017-12-09T03:08:46.651Z,994.5
2017-12-09T03:09:46.653Z,994.52
2017-12-09T03:10:46.676Z,994.44
2017-12-09T03:11:46.672Z,994.48
2017-12-09T03:12:46.695Z,994.45
2017-12-09T03:13:46.703Z,994.44
2017-12-09T03:14:46.718Z,994.48
2017-12-09T03:15:46.712Z,994.51
2017-12-09T03:16:46.732Z,994.49
2017-12-09T03:17:46.734Z,994.51
2017-12-09T03:18:46.756Z,994.45
2017-12-09T03:19:46.753Z,994.51
2017-12-09T03:20:46.763Z,994.51
2017-12-09T03:21:46.772Z,994.49
2017-12-09T03:22:46.791Z,994.55
2017-12-09T03:23:46.794Z,994.57
2017-12-09T03:24:46.812Z,994.51
2017-12-09T03:25:46.813Z,994.64
2017-12-09T03:26:46.835Z,994.56
2017-12-09T03:27:46.834Z,994.57
2017-12-09T03:28:46.849Z,994.6
2017-12-09T03:29:46.853Z,994.55
2017-12-09T03:30:46.876Z,994.62
2017-12-09T03:31:46.873Z,994.61
2017-12-09T03:32:46.888Z,994.55
2017-12-09T03:33:46.892Z,994.62
2017-12-09T03:34:46.916Z,994.69
2017-12-09T03:35:46.916Z,994.57
2017-12-09T03:36:46.931Z,994.6
2017-12-09T03:37:46.935Z,994.61
2017-12-09T03:38:46.965Z,994.55
2017-12-09T03:39:46.953Z,994.57
2017-12-09T03:40:46.975Z,994.57
2017-12-09T03:41:46.974Z,994.69
2017-12-09T03:42:46.983Z,994.59
2017-12-09T03:43:46.995Z,994.6
2017-12-09T03:44:47.003Z,994.61
2017-12-09T03:45:47.013Z,994.62
2017-12-09T03:46:47.034Z,994.64
2017-12-09T03:47:47.035Z,994.65
2017-12-09T03:48:47.054Z,994.64
2017-12-09T03:49:47.053Z,994.63
2017-12-09T03:50:47.064Z,994.67
2017-12-09T03:51:47.075Z,994.66
2017-12-09T03:52:47.093Z,994.7
2017-12-09T03:53:47.096Z,994.67
2017-12-09T03:54:47.118Z,994.72
2017-12-09T03:55:47.114Z,994.7
2017-12-09T03:56:47.134Z,994.74
2017-12-09T03:57:47.135Z,994.7
2017-12-09T03:58:47.152Z,994.68
2017-12-09T03:59:47.156Z,994.71
2017-12-09T04:00:47.165Z,994.72
2017-12-09T04:01:47.174Z,994.75
2017-12-09T04:02:47.191Z,994.72
2017-12-09T04:03:47.194Z,994.71
2017-12-09T04:04:47.206Z,994.68
2017-12-09T04:05:47.214Z,994.72
2017-12-09T04:06:47.224Z,994.78
2017-12-09T04:07:47.235Z,994.78
2017-12-09T04:08:47.245Z,994.67
2017-12-09T04:09:47.256Z,994.65
2017-12-09T04:10:47.267Z,994.68
2017-12-09T04:11:47.277Z,994.62
2017-12-09T04:12:47.287Z,994.69
2017-12-09T04:13:47.294Z,994.75
2017-12-09T04:14:47.303Z,994.77
2017-12-09T04:15:47.314Z,994.77
2017-12-09T04:16:47.324Z,994.77
2017-12-09T04:17:47.333Z,994.79
2017-12-09T04:18:47.345Z,994.81
2017-12-09T04:19:47.355Z,994.76
2017-12-09T04:20:47.364Z,994.78
2017-12-09T04:21:47.372Z,994.77
2017-12-09T04:22:47.386Z,994.79
2017-12-09T04:23:47.395Z,994.77
2017-12-09T04:24:47.403Z,994.83
2017-12-09T04:25:47.413Z,994.81
2017-12-09T04:26:47.425Z,994.86
2017-12-09T04:27:47.434Z,994.84
2017-12-09T04:28:47.443Z,994.83
2017-12-09T04:29:47.453Z,994.88
2017-12-09T04:30:47.471Z,994.84
2017-12-09T04:31:47.474Z,994.87
2017-12-09T04:32:47.491Z,994.9
2017-12-09T04:33:47.495Z,994.87
2017-12-09T04:34:47.506Z,994.83
2017-12-09T04:35:47.513Z,994.82
2017-12-09T04:36:47.525Z,994.78
2017-12-09T04:37:47.534Z,994.76
2017-12-09T04:38:47.548Z,994.75
2017-12-09T04:39:47.555Z,994.75
2017-12-09T04:40:47.564Z,994.75
2017-12-09T04:41:47.581Z,994.8
2017-12-09T04:42:47.585Z,994.81
2017-12-09T04:43:47.593Z,994.82
2017-12-09T04:44:47.606Z,994.87
2017-12-09T04:45:47.615Z,994.86
2017-12-09T04:46:47.623Z,994.83
2017-12-09T04:47:47.633Z,994.85
2017-12-09T04:48:47.643Z,994.9
2017-12-09T04:49:47.653Z,994.95
2017-12-09T04:50:47.663Z,994.92
2017-12-09T04:51:47.675Z,994.94
2017-12-09T04:52:47.683Z,994.93
2017-12-09T04:53:47.694Z,994.88
2017-12-09T04:54:47.704Z,994.95
2017-12-09T04:55:47.738Z,994.94
2017-12-09T04:56:47.723Z,994.95
2017-12-09T04:57:47.733Z,994.96
2017-12-09T04:58:47.743Z,994.97
2017-12-09T04:59:47.753Z,995.03
2017-12-09T05:00:47.764Z,994.99
2017-12-09T05:01:47.773Z,995.01
2017-12-09T05:03:47.793Z,994.97
2017-12-09T05:04:47.804Z,994.99
2017-12-09T05:05:47.813Z,995
2017-12-09T05:06:47.823Z,995.04
2017-12-09T05:07:47.835Z,995
2017-12-09T05:08:47.847Z,995.05
2017-12-09T05:09:47.853Z,995.05
2017-12-09T05:10:47.901Z,995.06
2017-12-09T05:11:47.877Z,995.02
2017-12-09T05:12:47.884Z,995.01
2017-12-09T05:13:47.896Z,995.01
2017-12-09T05:14:47.903Z,994.96
2017-12-09T05:15:47.913Z,994.94
2017-12-09T05:16:47.922Z,994.94
2017-12-09T05:17:47.934Z,995.05
2017-12-09T05:18:47.948Z,995.03
2017-12-09T05:19:47.953Z,995.02
2017-12-09T05:20:47.963Z,994.98
2017-12-09T05:21:47.976Z,994.93
2017-12-09T05:22:47.985Z,994.95
2017-12-09T05:23:47.992Z,995.02
2017-12-09T05:24:48.002Z,995.03
2017-12-09T05:25:48.012Z,995.05
2017-12-09T05:26:48.024Z,995.13
2017-12-09T05:27:48.034Z,995.07
2017-12-09T05:28:48.044Z,995.07
2017-12-09T05:29:48.053Z,995.09
2017-12-09T05:30:48.062Z,995.04
2017-12-09T05:31:48.073Z,995.1
2017-12-09T05:32:48.083Z,995.04
2017-12-09T05:33:48.094Z,995.13
2017-12-09T05:34:48.120Z,995.04
2017-12-09T05:35:48.117Z,995.08
2017-12-09T05:36:48.123Z,995.04
2017-12-09T05:37:48.132Z,995.02
2017-12-09T05:38:48.144Z,995.09
2017-12-09T05:39:48.152Z,995.06
2017-12-09T05:40:48.171Z,995.07
2017-12-09T05:41:48.175Z,995
2017-12-09T05:42:48.182Z,995.06
2017-12-09T05:43:48.196Z,995
2017-12-09T05:44:48.203Z,995.11
2017-12-09T05:45:48.212Z,995.02
2017-12-09T05:46:48.223Z,995.01
2017-12-09T05:47:48.232Z,995
2017-12-09T05:48:48.243Z,995
2017-12-09T05:49:48.256Z,994.98
2017-12-09T05:50:48.262Z,995.01
2017-12-09T05:51:48.271Z,995.02
2017-12-09T05:52:48.282Z,995.04
2017-12-09T05:53:48.296Z,995.04
2017-12-09T05:54:48.311Z,995.09
2017-12-09T05:55:48.315Z,995.07
2017-12-09T05:56:48.331Z,995.07
2017-12-09T05:57:48.333Z,995.11
2017-12-09T05:58:48.343Z,995.13
2017-12-09T05:59:48.351Z,995.14
2017-12-09T06:00:48.361Z,995.15
2017-12-09T06:01:48.372Z,995.17
2017-12-09T06:02:48.385Z,995.18
2017-12-09T06:03:48.391Z,995.21
2017-12-09T06:04:48.418Z,995.16
2017-12-09T06:05:48.411Z,995.18
2017-12-09T06:06:48.428Z,995.15
2017-12-09T06:07:48.431Z,995.23
2017-12-09T06:08:48.442Z,995.21
2017-12-09T06:09:48.452Z,995.25
2017-12-09T06:10:48.461Z,995.25
2017-12-09T06:11:48.471Z,995.27
2017-12-09T06:12:48.482Z,995.3
2017-12-09T06:13:48.491Z,995.29
2017-12-09T06:14:48.500Z,995.31
2017-12-09T06:15:48.511Z,995.27
2017-12-09T06:16:48.521Z,995.31
2017-12-09T06:17:48.531Z,995.34
2017-12-09T06:18:48.541Z,995.35
2017-12-09T06:19:48.550Z,995.36
2017-12-09T06:20:48.560Z,995.36
2017-12-09T06:21:48.569Z,995.35
2017-12-09T06:22:48.580Z,995.36
2017-12-09T06:23:48.590Z,995.38
2017-12-09T06:24:48.600Z,995.34
2017-12-09T06:25:48.610Z,995.32
2017-12-09T06:26:48.620Z,995.31
2017-12-09T06:27:48.630Z,995.25
2017-12-09T06:28:48.639Z,995.24
2017-12-09T06:29:48.649Z,995.27
2017-12-09T06:30:48.659Z,995.23
2017-12-09T06:31:48.669Z,995.27
2017-12-09T06:32:48.679Z,995.25
2017-12-09T06:33:48.689Z,995.29
2017-12-09T06:34:48.765Z,995.32
2017-12-09T06:35:48.708Z,995.31
2017-12-09T06:36:48.767Z,995.3
2017-12-09T06:37:48.728Z,995.26
2017-12-09T06:38:48.742Z,995.21
2017-12-09T06:39:48.798Z,995.23
2017-12-09T06:40:48.758Z,995.22
2017-12-09T06:41:48.768Z,995.25
2017-12-09T06:42:48.779Z,995.31
2017-12-09T06:43:48.786Z,995.27
2017-12-09T06:44:48.797Z,995.26
2017-12-09T06:45:48.807Z,995.31
2017-12-09T06:46:48.828Z,995.36
2017-12-09T06:47:48.827Z,995.3
2017-12-09T06:48:48.836Z,995.32
2017-12-09T06:49:48.854Z,995.32
2017-12-09T06:50:48.856Z,995.35
2017-12-09T06:51:48.871Z,995.34
2017-12-09T06:52:48.876Z,995.36
2017-12-09T06:53:48.889Z,995.32
2017-12-09T06:54:48.896Z,995.34
2017-12-09T06:55:48.906Z,995.38
2017-12-09T06:56:48.916Z,995.35
2017-12-09T06:57:48.926Z,995.37
2017-12-09T06:58:48.935Z,995.35
2017-12-09T06:59:48.945Z,995.32
2017-12-09T07:00:48.961Z,995.38
2017-12-09T07:01:48.967Z,995.32
2017-12-09T07:02:48.976Z,995.33
2017-12-09T07:03:48.987Z,995.38
2017-12-09T07:04:48.998Z,995.33
2017-12-09T07:05:49.005Z,995.32
2017-12-09T07:06:49.015Z,995.28
2017-12-09T07:07:49.026Z,995.31
2017-12-09T07:08:49.037Z,995.23
2017-12-09T07:09:49.045Z,995.22
2017-12-09T07:10:49.056Z,995.26
2017-12-09T07:11:49.073Z,995.24
2017-12-09T07:12:49.076Z,995.23
2017-12-09T07:13:49.085Z,995.29
2017-12-09T07:14:49.096Z,995.3
2017-12-09T07:15:49.107Z,995.35
2017-12-09T07:16:49.115Z,995.35
2017-12-09T07:17:49.129Z,995.29
2017-12-09T07:18:49.138Z,995.31
2017-12-09T07:19:49.146Z,995.29
2017-12-09T07:20:49.155Z,995.34
2017-12-09T07:21:49.165Z,995.29
2017-12-09T07:22:49.175Z,995.3
2017-12-09T07:23:49.185Z,995.32
2017-12-09T07:24:49.194Z,995.27
2017-12-09T07:25:49.207Z,995.33
2017-12-09T07:26:49.215Z,995.32
2017-12-09T07:27:49.226Z,995.29
2017-12-09T07:28:49.236Z,995.33
2017-12-09T07:29:49.255Z,995.35
2017-12-09T07:30:49.257Z,995.3
2017-12-09T07:31:49.267Z,995.3
2017-12-09T07:32:49.277Z,995.33
2017-12-09T07:33:49.286Z,995.4
2017-12-09T07:34:49.296Z,995.35
2017-12-09T07:35:49.310Z,995.33
2017-12-09T07:36:49.315Z,995.37
2017-12-09T07:37:49.327Z,995.34
2017-12-09T07:38:49.340Z,995.36
2017-12-09T07:39:49.347Z,995.34
2017-12-09T07:40:49.358Z,995.34
2017-12-09T07:41:49.368Z,995.3
2017-12-09T07:42:49.375Z,995.3
2017-12-09T07:43:49.387Z,995.29
2017-12-09T07:44:49.397Z,995.33
2017-12-09T07:45:49.409Z,995.28
2017-12-09T07:46:49.419Z,995.25
2017-12-09T07:47:49.427Z,995.27
2017-12-09T07:48:49.439Z,995.31
2017-12-09T07:49:49.448Z,995.34
2017-12-09T07:50:49.461Z,995.36
2017-12-09T07:51:49.469Z,995.38
2017-12-09T07:52:49.479Z,995.37
2017-12-09T07:53:49.488Z,995.37
2017-12-09T07:54:49.500Z,995.35
2017-12-09T07:55:49.509Z,995.38
2017-12-09T07:56:49.519Z,995.38
2017-12-09T07:57:49.535Z,995.4
2017-12-09T07:58:49.540Z,995.39
2017-12-09T07:59:49.551Z,995.44
2017-12-09T08:00:49.560Z,995.4
2017-12-09T08:01:49.570Z,995.41
2017-12-09T08:02:49.581Z,995.44
2017-12-09T08:03:49.592Z,995.41
2017-12-09T08:04:49.602Z,995.47
2017-12-09T08:05:49.613Z,995.45
2017-12-09T08:06:49.624Z,995.49
2017-12-09T08:07:49.633Z,995.41
2017-12-09T08:08:49.642Z,995.39
2017-12-09T08:09:49.655Z,995.38
2017-12-09T08:10:49.664Z,995.44
2017-12-09T08:11:49.676Z,995.37
2017-12-09T08:12:49.685Z,995.4
2017-12-09T08:13:49.696Z,995.42
2017-12-09T08:14:49.708Z,995.45
2017-12-09T08:15:49.716Z,995.43
2017-12-09T08:16:49.727Z,995.44
2017-12-09T08:17:49.738Z,995.39
2017-12-09T08:18:49.747Z,995.42
2017-12-09T08:19:49.758Z,995.35
2017-12-09T08:20:49.770Z,995.37
2017-12-09T08:21:49.781Z,995.33
2017-12-09T08:22:49.790Z,995.31
2017-12-09T08:23:49.803Z,995.24
2017-12-09T08:24:49.811Z,995.28
2017-12-09T08:25:49.826Z,995.33
2017-12-09T08:26:49.832Z,995.29
2017-12-09T08:27:49.842Z,995.33
2017-12-09T08:28:49.855Z,995.31
2017-12-09T08:29:49.865Z,995.31
2017-12-09T08:30:49.876Z,995.28
2017-12-09T08:31:49.885Z,995.21
2017-12-09T08:32:49.896Z,995.29
2017-12-09T08:33:49.907Z,995.22
2017-12-09T08:34:49.917Z,995.24
2017-12-09T08:35:49.928Z,995.2
2017-12-09T08:36:49.939Z,995.27
2017-12-09T08:37:49.953Z,995.3
2017-12-09T08:38:49.969Z,995.3
2017-12-09T08:39:49.972Z,995.28
2017-12-09T08:40:49.985Z,995.33
2017-12-09T08:41:49.994Z,995.25
2017-12-09T08:42:50.006Z,995.31
2017-12-09T08:43:50.014Z,995.34
2017-12-09T08:44:50.023Z,995.32
2017-12-09T08:45:50.035Z,995.4
2017-12-09T08:46:50.047Z,995.29
2017-12-09T08:47:50.056Z,995.29
2017-12-09T08:48:50.073Z,995.3
2017-12-09T08:49:50.089Z,995.36
2017-12-09T08:50:50.088Z,995.3
2017-12-09T08:51:50.099Z,995.28
2017-12-09T08:52:50.109Z,995.26
2017-12-09T08:53:50.120Z,995.27
2017-12-09T08:54:50.131Z,995.31
2017-12-09T08:55:50.142Z,995.26
2017-12-09T08:56:50.152Z,995.27
2017-12-09T08:57:50.163Z,995.34
2017-12-09T08:58:50.172Z,995.37
2017-12-09T08:59:50.184Z,995.33
2017-12-09T09:00:50.194Z,995.25
2017-12-09T09:01:50.206Z,995.33
2017-12-09T09:02:50.215Z,995.36
2017-12-09T09:03:50.229Z,995.33
2017-12-09T09:04:50.237Z,995.34
2017-12-09T09:05:50.248Z,995.21
2017-12-09T09:06:50.257Z,995.31
2017-12-09T09:07:50.269Z,995.36
2017-12-09T09:08:50.280Z,995.28
2017-12-09T09:09:50.291Z,995.39
2017-12-09T09:10:50.308Z,995.33
2017-12-09T09:11:50.311Z,995.35
2017-12-09T09:12:50.321Z,995.32
2017-12-09T09:13:50.331Z,995.33
2017-12-09T09:14:50.354Z,995.35
2017-12-09T09:15:50.353Z,995.35
2017-12-09T09:16:50.376Z,995.3
2017-12-09T09:17:50.374Z,995.3
2017-12-09T09:18:50.393Z,995.33
2017-12-09T09:19:50.396Z,995.29
2017-12-09T09:20:50.415Z,995.34
2017-12-09T09:21:50.417Z,995.33
2017-12-09T09:22:50.435Z,995.36
2017-12-09T09:23:50.440Z,995.31
2017-12-09T09:24:50.456Z,995.2
2017-12-09T09:25:50.458Z,995.22
2017-12-09T09:26:50.481Z,995.27
2017-12-09T09:27:50.479Z,995.24
2017-12-09T09:28:50.537Z,995.17
2017-12-09T09:29:50.502Z,995.24
2017-12-09T09:30:50.514Z,995.34
2017-12-09T09:31:50.525Z,995.29
2017-12-09T09:32:50.531Z,995.29
2017-12-09T09:33:50.543Z,995.29
2017-12-09T09:34:50.554Z,995.28
2017-12-09T09:35:50.564Z,995.35
2017-12-09T09:36:50.574Z,995.35
2017-12-09T09:37:50.585Z,995.38
2017-12-09T09:38:50.596Z,995.34
2017-12-09T09:39:50.605Z,995.34
2017-12-09T09:40:50.615Z,995.36
2017-12-09T09:41:50.631Z,995.42
2017-12-09T09:42:50.636Z,995.47
2017-12-09T09:43:50.646Z,995.33
2017-12-09T09:44:50.657Z,995.35
2017-12-09T09:45:50.671Z,995.39
2017-12-09T09:46:50.678Z,995.35
2017-12-09T09:47:50.689Z,995.36
2017-12-09T09:48:50.699Z,995.39
2017-12-09T09:49:50.714Z,995.33
2017-12-09T09:50:50.720Z,995.37
2017-12-09T09:51:50.730Z,995.34
2017-12-09T09:52:50.741Z,995.41
2017-12-09T09:53:50.752Z,995.38
2017-12-09T09:54:50.761Z,995.35
2017-12-09T09:55:50.773Z,995.3
2017-12-09T09:56:50.782Z,995.33
2017-12-09T09:57:50.792Z,995.42
2017-12-09T09:58:50.803Z,995.32
2017-12-09T09:59:50.814Z,995.44
2017-12-09T10:00:50.824Z,995.34
2017-12-09T10:01:50.833Z,995.38
2017-12-09T10:02:50.845Z,995.39
2017-12-09T10:03:50.856Z,995.41
2017-12-09T10:04:50.865Z,995.32
2017-12-09T10:05:50.877Z,995.33
2017-12-09T10:06:50.891Z,995.41
2017-12-09T10:07:50.897Z,995.38
2017-12-09T10:08:50.909Z,995.38
2017-12-09T10:09:50.925Z,995.39
2017-12-09T10:10:50.928Z,995.3
2017-12-09T10:11:50.939Z,995.39
2017-12-09T10:12:50.950Z,995.38
2017-12-09T10:13:50.961Z,995.41
2017-12-09T10:14:50.971Z,995.37
2017-12-09T10:15:50.982Z,995.38
2017-12-09T10:16:50.991Z,995.38
2017-12-09T10:17:51.004Z,995.36
2017-12-09T10:18:51.012Z,995.39
2017-12-09T10:19:51.023Z,995.36
2017-12-09T10:20:51.033Z,995.3
2017-12-09T10:21:51.043Z,995.43
2017-12-09T10:22:51.053Z,995.48
2017-12-09T10:23:51.064Z,995.46
2017-12-09T10:24:51.074Z,995.33
2017-12-09T10:25:51.085Z,995.36
2017-12-09T10:26:51.095Z,995.28
2017-12-09T10:27:51.105Z,995.24
2017-12-09T10:28:51.116Z,995.37
2017-12-09T10:29:51.128Z,995.3
2017-12-09T10:30:51.140Z,995.39
2017-12-09T10:31:51.158Z,995.37
2017-12-09T10:32:51.157Z,995.35
2017-12-09T10:33:51.168Z,995.39
2017-12-09T10:34:51.177Z,995.4
2017-12-09T10:35:51.189Z,995.24
2017-12-09T10:36:51.198Z,995.37
2017-12-09T10:37:51.210Z,995.26
2017-12-09T10:38:51.219Z,995.37
2017-12-09T10:39:51.231Z,995.48
2017-12-09T10:40:51.240Z,995.35
2017-12-09T10:41:51.254Z,995.34
2017-12-09T10:42:51.260Z,995.43
2017-12-09T10:43:51.272Z,995.3
2017-12-09T10:44:51.281Z,995.26
2017-12-09T10:45:51.290Z,995.31
2017-12-09T10:46:51.301Z,995.25
2017-12-09T10:47:51.313Z,995.29
2017-12-09T10:48:51.321Z,995.33
2017-12-09T10:49:51.332Z,995.28
2017-12-09T10:50:51.383Z,995.28
2017-12-09T10:51:51.353Z,995.26
2017-12-09T10:52:51.364Z,995.28
2017-12-09T10:53:51.373Z,995.13
2017-12-09T10:54:51.385Z,995.11
2017-12-09T10:55:51.400Z,995.18
2017-12-09T10:56:51.443Z,995.16
2017-12-09T10:57:51.419Z,995.14
2017-12-09T10:58:51.425Z,995.17
2017-12-09T10:59:51.434Z,995.2
2017-12-09T11:00:51.446Z,995.2
2017-12-09T11:01:51.457Z,995.13
2017-12-09T11:02:51.468Z,995.21
2017-12-09T11:03:51.476Z,995.21
2017-12-09T11:04:51.488Z,995.19
2017-12-09T11:05:51.497Z,995.11
2017-12-09T11:06:51.506Z,995.18
2017-12-09T11:07:51.519Z,995.16
2017-12-09T11:08:51.528Z,995.05
2017-12-09T11:09:51.546Z,995.06
2017-12-09T11:10:51.548Z,995.18
2017-12-09T11:11:51.559Z,995.16
2017-12-09T11:12:51.571Z,995.26
2017-12-09T11:13:51.580Z,995.09
2017-12-09T11:14:51.590Z,995.18
2017-12-09T11:15:51.602Z,995.18
2017-12-09T11:16:51.610Z,995.21
2017-12-09T11:17:51.620Z,995.12
2017-12-09T11:18:51.631Z,995.2
2017-12-09T11:19:51.640Z,995.23
2017-12-09T11:20:51.653Z,995.2
2017-12-09T11:21:51.660Z,995.31
2017-12-09T11:22:51.672Z,995.09
2017-12-09T11:23:51.683Z,995.24
2017-12-09T11:24:51.692Z,995.19
2017-12-09T11:25:51.705Z,995.22
2017-12-09T11:26:51.713Z,995.33
2017-12-09T11:27:51.723Z,995.28
2017-12-09T11:28:51.734Z,995.18
2017-12-09T11:29:51.743Z,995.24
2017-12-09T11:30:51.754Z,995.23
2017-12-09T11:31:51.765Z,995.26
2017-12-09T11:32:51.774Z,995.32
2017-12-09T11:33:51.810Z,995.21
2017-12-09T11:34:51.796Z,995.34
2017-12-09T11:35:51.808Z,995.23
2017-12-09T11:36:51.815Z,995.37
2017-12-09T11:37:51.828Z,995.44
2017-12-09T11:38:51.836Z,995.33
2017-12-09T11:39:51.845Z,995.32
2017-12-09T11:40:51.856Z,995.37
2017-12-09T11:41:51.868Z,995.36
2017-12-09T11:42:51.877Z,995.33
2017-12-09T11:43:51.887Z,995.35
2017-12-09T11:44:51.900Z,995.4
2017-12-09T11:45:51.909Z,995.34
2017-12-09T11:46:51.918Z,995.35
2017-12-09T11:47:51.929Z,995.35
2017-12-09T11:48:51.941Z,995.41
2017-12-09T11:49:51.951Z,995.44
2017-12-09T11:50:51.963Z,995.39
2017-12-09T11:51:51.970Z,995.4
2017-12-09T11:52:51.981Z,995.32
2017-12-09T11:53:51.991Z,995.35
2017-12-09T11:54:52.002Z,995.3
2017-12-09T11:55:52.014Z,995.37
2017-12-09T11:56:52.021Z,995.3
2017-12-09T11:57:52.031Z,995.26
2017-12-09T11:58:52.042Z,995.37
2017-12-09T11:59:52.053Z,995.27
2017-12-09T12:00:52.064Z,995.32
2017-12-09T12:01:52.074Z,995.33
2017-12-09T12:02:52.083Z,995.41
2017-12-09T12:03:52.093Z,995.32
2017-12-09T12:04:52.105Z,995.45
2017-12-09T12:05:52.113Z,995.44
2017-12-09T12:06:52.125Z,995.36
2017-12-09T12:07:52.134Z,995.35
2017-12-09T12:08:52.144Z,995.44
2017-12-09T12:09:52.154Z,995.39
2017-12-09T12:10:52.165Z,995.43
2017-12-09T12:11:52.178Z,995.4
2017-12-09T12:12:52.185Z,995.48
2017-12-09T12:13:52.196Z,995.45
2017-12-09T12:14:52.206Z,995.47
2017-12-09T12:15:52.216Z,995.41
2017-12-09T12:16:52.225Z,995.46
2017-12-09T12:17:52.236Z,995.36
2017-12-09T12:18:52.247Z,995.3
2017-12-09T12:19:52.259Z,995.33
2017-12-09T12:20:52.269Z,995.4
2017-12-09T12:21:52.284Z,995.39
2017-12-09T12:22:52.359Z,995.46
2017-12-09T12:23:52.331Z,995.47
2017-12-09T12:24:52.310Z,995.42
2017-12-09T12:25:52.322Z,995.38
2017-12-09T12:26:52.337Z,995.43
2017-12-09T12:27:52.342Z,995.44
2017-12-09T12:28:52.351Z,995.39
2017-12-09T12:29:52.399Z,995.48
2017-12-09T12:30:52.375Z,995.4
2017-12-09T12:31:52.432Z,995.4
2017-12-09T12:32:52.392Z,995.44